sensor_id;sensor_type;location;lat;lon;timestamp;pressure;altitude;pressure_sealevel;temperature;humidity
52032;BME280;38044;45.148;39.604;2023-04-29T00:02:12;100543.00;;;12.81;87.72
52032;BME280;38044;45.148;39.604;2023-04-29T00:04:38;100533.88;;;12.68;87.65
52032;BME280;38044;45.148;39.604;2023-04-29T00:07:04;100524.69;;;12.69;87.94
52032;BME280;38044;45.148;39.604;2023-04-29T00:09:30;100513.16;;;12.55;87.71
52032;BME280;38044;45.148;39.604;2023-04-29T00:11:55;100524.44;;;12.57;87.74
52032;BME280;38044;45.148;39.604;2023-04-29T00:14:21;100415.31;;;11.82;87.64
52032;BME280;38044;45.148;39.604;2023-04-29T00:16:47;100404.44;;;11.73;88.17
52032;BME280;38044;45.148;39.604;2023-04-29T00:19:13;100525.75;;;12.46;88.25
52032;BME280;38044;45.148;39.604;2023-04-29T00:21:39;100377.56;;;11.45;87.54
52032;BME280;38044;45.148;39.604;2023-04-29T00:24:05;100477.66;;;12.03;87.55
52032;BME280;38044;45.148;39.604;2023-04-29T00:26:31;100359.75;;;11.22;87.69
52032;BME280;38044;45.148;39.604;2023-04-29T00:28:56;100541.66;;;12.33;87.65
52032;BME280;38044;45.148;39.604;2023-04-29T00:31:22;100481.16;;;11.89;87.78
52032;BME280;38044;45.148;39.604;2023-04-29T00:33:48;100532.81;;;12.19;87.33
52032;BME280;38044;45.148;39.604;2023-04-29T00:36:14;100541.78;;;12.28;87.02
52032;BME280;38044;45.148;39.604;2023-04-29T00:38:40;100417.53;;;11.52;86.67
52032;BME280;38044;45.148;39.604;2023-04-29T00:41:06;100499.28;;;12.11;87.42
52032;BME280;38044;45.148;39.604;2023-04-29T00:43:31;100508.34;;;12.15;87.18
52032;BME280;38044;45.148;39.604;2023-04-29T00:45:57;100401.69;;;11.50;87.58
52032;BME280;38044;45.148;39.604;2023-04-29T00:48:23;100536.38;;;12.42;87.92
52032;BME280;38044;45.148;39.604;2023-04-29T00:50:49;100545.94;;;12.48;87.82
52032;BME280;38044;45.148;39.604;2023-04-29T00:53:15;100535.97;;;12.35;87.23
52032;BME280;38044;45.148;39.604;2023-04-29T00:55:43;100569.47;;;12.56;87.04
52032;BME280;38044;45.148;39.604;2023-04-29T00:58:09;100568.91;;;12.46;87.07
52032;BME280;38044;45.148;39.604;2023-04-29T01:00:37;100457.22;;;11.74;86.96
52032;BME280;38044;45.148;39.604;2023-04-29T01:03:04;100559.09;;;12.50;87.40
52032;BME280;38044;45.148;39.604;2023-04-29T01:05:30;100512.06;;;12.20;87.72
52032;BME280;38044;45.148;39.604;2023-04-29T01:08:25;100545.69;;;12.58;87.98
52032;BME280;38044;45.148;39.604;2023-04-29T01:11:07;100526.25;;;12.48;87.55
52032;BME280;38044;45.148;39.604;2023-04-29T01:13:40;100567.06;;;12.55;87.40
52032;BME280;38044;45.148;39.604;2023-04-29T01:16:10;100583.22;;;12.69;86.85
52032;BME280;38044;45.148;39.604;2023-04-29T01:18:56;100581.44;;;12.64;86.43
52032;BME280;38044;45.148;39.604;2023-04-29T01:21:24;100581.06;;;12.57;86.25
52032;BME280;38044;45.148;39.604;2023-04-29T01:23:50;100571.66;;;12.54;86.16
52032;BME280;38044;45.148;39.604;2023-04-29T01:26:21;100564.13;;;12.43;85.97
52032;BME280;38044;45.148;39.604;2023-04-29T01:32:12;100595.41;;;12.66;85.68
52032;BME280;38044;45.148;39.604;2023-04-29T01:37:16;100598.91;;;12.67;85.87
52032;BME280;38044;45.148;39.604;2023-04-29T01:40:04;100602.06;;;12.82;86.19
52032;BME280;38044;45.148;39.604;2023-04-29T01:42:39;100599.38;;;12.82;85.97
52032;BME280;38044;45.148;39.604;2023-04-29T01:45:10;100559.66;;;12.60;85.68
52032;BME280;38044;45.148;39.604;2023-04-29T01:47:40;100593.41;;;12.72;85.53
52032;BME280;38044;45.148;39.604;2023-04-29T01:50:07;100598.59;;;12.68;85.88
52032;BME280;38044;45.148;39.604;2023-04-29T01:52:33;100556.03;;;12.43;86.28
52032;BME280;38044;45.148;39.604;2023-04-29T01:54:59;100426.31;;;11.58;86.37
52032;BME280;38044;45.148;39.604;2023-04-29T01:57:25;100556.91;;;12.38;86.49
52032;BME280;38044;45.148;39.604;2023-04-29T01:59:51;100587.66;;;12.51;86.17
52032;BME280;38044;45.148;39.604;2023-04-29T02:02:17;100563.00;;;12.44;86.77
52032;BME280;38044;45.148;39.604;2023-04-29T02:04:45;100591.66;;;12.53;86.91
52032;BME280;38044;45.148;39.604;2023-04-29T02:07:11;100595.00;;;12.59;86.99
52032;BME280;38044;45.148;39.604;2023-04-29T02:09:37;100580.66;;;12.50;86.53
52032;BME280;38044;45.148;39.604;2023-04-29T02:12:03;100425.50;;;11.57;86.94
52032;BME280;38044;45.148;39.604;2023-04-29T02:14:29;100591.22;;;12.60;87.48
52032;BME280;38044;45.148;39.604;2023-04-29T02:16:56;100547.53;;;12.35;87.21
52032;BME280;38044;45.148;39.604;2023-04-29T02:19:21;100458.19;;;11.78;86.81
52032;BME280;38044;45.148;39.604;2023-04-29T02:21:47;100578.97;;;12.54;86.84
52032;BME280;38044;45.148;39.604;2023-04-29T02:24:13;100588.34;;;12.56;87.30
52032;BME280;38044;45.148;39.604;2023-04-29T02:26:39;100587.25;;;12.57;86.80
52032;BME280;38044;45.148;39.604;2023-04-29T02:29:05;100600.19;;;12.69;87.15
52032;BME280;38044;45.148;39.604;2023-04-29T02:31:31;100604.97;;;12.72;86.80
52032;BME280;38044;45.148;39.604;2023-04-29T02:33:57;100615.16;;;12.75;86.27
52032;BME280;38044;45.148;39.604;2023-04-29T02:36:23;100593.69;;;12.70;85.93
52032;BME280;38044;45.148;39.604;2023-04-29T02:38:49;100602.69;;;12.79;85.71
52032;BME280;38044;45.148;39.604;2023-04-29T02:41:16;100603.75;;;12.78;85.40
52032;BME280;38044;45.148;39.604;2023-04-29T02:43:42;100554.50;;;12.50;84.92
52032;BME280;38044;45.148;39.604;2023-04-29T02:46:09;100623.00;;;12.99;84.58
52032;BME280;38044;45.148;39.604;2023-04-29T02:48:34;100457.88;;;12.07;84.23
52032;BME280;38044;45.148;39.604;2023-04-29T02:51:02;100609.44;;;13.13;83.84
52032;BME280;38044;45.148;39.604;2023-04-29T02:53:28;100609.81;;;13.20;83.78
52032;BME280;38044;45.148;39.604;2023-04-29T02:55:53;100582.03;;;13.20;83.54
52032;BME280;38044;45.148;39.604;2023-04-29T02:58:20;100585.16;;;13.36;83.61
52032;BME280;38044;45.148;39.604;2023-04-29T03:00:45;100609.97;;;13.69;82.85
52032;BME280;38044;45.148;39.604;2023-04-29T03:03:11;100606.81;;;13.75;82.25
52032;BME280;38044;45.148;39.604;2023-04-29T03:05:37;100453.44;;;12.93;81.40
52032;BME280;38044;45.148;39.604;2023-04-29T03:08:03;100483.41;;;13.14;80.49
52032;BME280;38044;45.148;39.604;2023-04-29T03:10:29;100483.56;;;13.17;80.49
52032;BME280;38044;45.148;39.604;2023-04-29T03:12:55;100584.50;;;14.01;80.47
52032;BME280;38044;45.148;39.604;2023-04-29T03:15:21;100484.88;;;13.51;80.20
52032;BME280;38044;45.148;39.604;2023-04-29T03:17:47;100590.34;;;14.43;79.70
52032;BME280;38044;45.148;39.604;2023-04-29T03:20:13;100623.03;;;14.73;78.98
52032;BME280;38044;45.148;39.604;2023-04-29T03:22:39;100496.31;;;14.14;78.87
52032;BME280;38044;45.148;39.604;2023-04-29T03:25:05;100602.03;;;15.04;78.17
52032;BME280;38044;45.148;39.604;2023-04-29T03:27:31;100581.78;;;15.10;77.31
52032;BME280;38044;45.148;39.604;2023-04-29T03:29:57;100606.28;;;15.40;76.86
52032;BME280;38044;45.148;39.604;2023-04-29T03:32:23;100622.47;;;15.75;76.32
52032;BME280;38044;45.148;39.604;2023-04-29T03:34:49;100509.13;;;15.30;75.45
52032;BME280;38044;45.148;39.604;2023-04-29T03:37:14;100625.63;;;16.75;74.24
52032;BME280;38044;45.148;39.604;2023-04-29T03:39:43;100637.69;;;17.07;72.16
52032;BME280;38044;45.148;39.604;2023-04-29T03:42:09;100635.28;;;17.26;70.98
52032;BME280;38044;45.148;39.604;2023-04-29T03:44:35;100607.94;;;17.44;70.74
52032;BME280;38044;45.148;39.604;2023-04-29T03:47:01;100647.16;;;18.00;67.79
52032;BME280;38044;45.148;39.604;2023-04-29T03:49:27;100634.59;;;18.20;67.78
52032;BME280;38044;45.148;39.604;2023-04-29T03:51:52;100617.25;;;18.13;66.83
52032;BME280;38044;45.148;39.604;2023-04-29T03:54:18;100522.94;;;17.55;67.34
52032;BME280;38044;45.148;39.604;2023-04-29T03:56:44;100630.28;;;18.19;65.50
52032;BME280;38044;45.148;39.604;2023-04-29T03:59:10;100630.38;;;18.48;65.79
52032;BME280;38044;45.148;39.604;2023-04-29T04:01:36;100563.97;;;17.99;65.36
52032;BME280;38044;45.148;39.604;2023-04-29T04:04:02;100630.59;;;18.55;64.52
52032;BME280;38044;45.148;39.604;2023-04-29T04:06:27;100613.53;;;18.82;63.69
52032;BME280;38044;45.148;39.604;2023-04-29T04:08:53;100598.34;;;19.09;61.55
52032;BME280;38044;45.148;39.604;2023-04-29T04:11:19;100532.31;;;18.72;62.23
52032;BME280;38044;45.148;39.604;2023-04-29T04:13:45;100644.84;;;19.89;62.64
52032;BME280;38044;45.148;39.604;2023-04-29T04:16:11;100538.09;;;19.58;59.32
52032;BME280;38044;45.148;39.604;2023-04-29T04:18:37;100629.06;;;20.30;58.47
52032;BME280;38044;45.148;39.604;2023-04-29T04:21:05;100650.84;;;21.55;55.25
52032;BME280;38044;45.148;39.604;2023-04-29T04:23:31;100566.09;;;21.81;52.92
52032;BME280;38044;45.148;39.604;2023-04-29T04:25:57;100542.22;;;22.09;51.04
52032;BME280;38044;45.148;39.604;2023-04-29T04:28:22;100626.97;;;23.11;51.12
52032;BME280;38044;45.148;39.604;2023-04-29T04:30:48;100579.06;;;23.35;49.01
52032;BME280;38044;45.148;39.604;2023-04-29T04:33:14;100652.69;;;24.19;48.44
52032;BME280;38044;45.148;39.604;2023-04-29T04:35:41;100661.38;;;24.24;47.82
52032;BME280;38044;45.148;39.604;2023-04-29T04:38:07;100621.72;;;24.84;48.10
52032;BME280;38044;45.148;39.604;2023-04-29T04:40:34;100564.81;;;24.19;47.51
52032;BME280;38044;45.148;39.604;2023-04-29T04:43:00;100559.16;;;23.94;47.85
52032;BME280;38044;45.148;39.604;2023-04-29T04:45:27;100611.94;;;23.73;48.17
52032;BME280;38044;45.148;39.604;2023-04-29T04:47:54;100561.44;;;22.99;49.79
52032;BME280;38044;45.148;39.604;2023-04-29T04:50:20;100518.47;;;22.13;50.45
52032;BME280;38044;45.148;39.604;2023-04-29T04:52:46;100629.91;;;22.12;51.54
52032;BME280;38044;45.148;39.604;2023-04-29T04:55:15;100625.16;;;21.63;52.40
52032;BME280;38044;45.148;39.604;2023-04-29T04:57:40;100626.63;;;21.57;52.78
52032;BME280;38044;45.148;39.604;2023-04-29T05:00:07;100621.03;;;21.50;53.18
52032;BME280;38044;45.148;39.604;2023-04-29T05:02:33;100597.56;;;22.48;51.19
52032;BME280;38044;45.148;39.604;2023-04-29T05:04:58;100514.66;;;23.22;48.67
52032;BME280;38044;45.148;39.604;2023-04-29T05:07:24;100599.16;;;23.91;48.03
52032;BME280;38044;45.148;39.604;2023-04-29T05:09:50;100593.25;;;24.44;47.24
52032;BME280;38044;45.148;39.604;2023-04-29T05:12:16;100581.03;;;25.51;44.60
52032;BME280;38044;45.148;39.604;2023-04-29T05:14:42;100600.06;;;26.87;43.01
52032;BME280;38044;45.148;39.604;2023-04-29T05:17:10;100602.59;;;27.89;41.16
52032;BME280;38044;45.148;39.604;2023-04-29T05:19:36;100482.66;;;26.05;42.98
52032;BME280;38044;45.148;39.604;2023-04-29T05:22:02;100595.00;;;26.82;42.88
52032;BME280;38044;45.148;39.604;2023-04-29T05:24:28;100593.19;;;27.31;41.42
52032;BME280;38044;45.148;39.604;2023-04-29T05:26:54;100491.19;;;26.50;42.12
52032;BME280;38044;45.148;39.604;2023-04-29T05:29:20;100509.47;;;25.54;42.71
52032;BME280;38044;45.148;39.604;2023-04-29T05:31:46;100625.88;;;25.83;44.63
52032;BME280;38044;45.148;39.604;2023-04-29T05:34:12;100608.09;;;25.20;45.38
52032;BME280;38044;45.148;39.604;2023-04-29T05:36:38;100580.47;;;24.11;46.67
52032;BME280;38044;45.148;39.604;2023-04-29T05:39:05;100605.97;;;23.64;47.57
52032;BME280;38044;45.148;39.604;2023-04-29T05:41:31;100584.34;;;23.17;47.96
52032;BME280;38044;45.148;39.604;2023-04-29T05:43:56;100543.28;;;22.23;49.24
52032;BME280;38044;45.148;39.604;2023-04-29T05:46:22;100493.78;;;21.56;50.05
52032;BME280;38044;45.148;39.604;2023-04-29T05:48:48;100599.50;;;21.71;50.82
52032;BME280;38044;45.148;39.604;2023-04-29T05:51:14;100590.19;;;21.30;51.90
52032;BME280;38044;45.148;39.604;2023-04-29T05:53:40;100585.34;;;21.43;52.40
52032;BME280;38044;45.148;39.604;2023-04-29T05:56:06;100585.56;;;21.34;51.44
52032;BME280;38044;45.148;39.604;2023-04-29T05:58:34;100590.44;;;21.02;52.73
52032;BME280;38044;45.148;39.604;2023-04-29T06:00:59;100590.31;;;20.95;54.45
52032;BME280;38044;45.148;39.604;2023-04-29T06:03:25;100610.84;;;20.88;54.39
52032;BME280;38044;45.148;39.604;2023-04-29T06:05:52;100611.13;;;20.64;54.77
52032;BME280;38044;45.148;39.604;2023-04-29T06:08:18;100572.03;;;20.09;55.75
52032;BME280;38044;45.148;39.604;2023-04-29T06:10:44;100609.47;;;19.76;55.81
52032;BME280;38044;45.148;39.604;2023-04-29T06:13:10;100596.56;;;19.01;57.56
52032;BME280;38044;45.148;39.604;2023-04-29T06:15:37;100610.06;;;18.57;59.74
52032;BME280;38044;45.148;39.604;2023-04-29T06:18:03;100626.66;;;18.15;60.34
52032;BME280;38044;45.148;39.604;2023-04-29T06:20:28;100550.63;;;17.24;61.55
52032;BME280;38044;45.148;39.604;2023-04-29T06:22:54;100604.75;;;17.29;62.49
52032;BME280;38044;45.148;39.604;2023-04-29T06:25:20;100614.63;;;17.13;63.27
52032;BME280;38044;45.148;39.604;2023-04-29T06:27:46;100470.34;;;16.27;62.91
52032;BME280;38044;45.148;39.604;2023-04-29T06:30:12;100579.16;;;16.97;63.18
52032;BME280;38044;45.148;39.604;2023-04-29T06:32:38;100512.16;;;16.47;63.82
52032;BME280;38044;45.148;39.604;2023-04-29T06:35:04;100618.50;;;17.12;62.72
52032;BME280;38044;45.148;39.604;2023-04-29T06:37:30;100491.41;;;16.30;62.60
52032;BME280;38044;45.148;39.604;2023-04-29T06:39:56;100628.88;;;17.10;62.34
52032;BME280;38044;45.148;39.604;2023-04-29T06:42:22;100591.63;;;16.77;62.75
52032;BME280;38044;45.148;39.604;2023-04-29T06:44:48;100625.19;;;16.94;63.38
52032;BME280;38044;45.148;39.604;2023-04-29T06:47:14;100496.41;;;15.98;63.88
52032;BME280;38044;45.148;39.604;2023-04-29T06:49:40;100624.22;;;16.77;64.44
52032;BME280;38044;45.148;39.604;2023-04-29T06:52:08;100593.56;;;16.68;64.09
52032;BME280;38044;45.148;39.604;2023-04-29T06:54:34;100621.28;;;16.82;64.51
52032;BME280;38044;45.148;39.604;2023-04-29T06:57:00;100620.88;;;16.72;64.29
52032;BME280;38044;45.148;39.604;2023-04-29T06:59:26;100593.97;;;16.58;64.46
52032;BME280;38044;45.148;39.604;2023-04-29T07:01:52;100576.75;;;16.54;64.73
52032;BME280;38044;45.148;39.604;2023-04-29T07:04:18;100610.28;;;17.00;64.70
52032;BME280;38044;45.148;39.604;2023-04-29T07:06:44;100613.34;;;16.98;64.26
52032;BME280;38044;45.148;39.604;2023-04-29T07:09:12;100568.03;;;16.69;64.20
52032;BME280;38044;45.148;39.604;2023-04-29T07:11:41;100597.97;;;16.81;63.97
52032;BME280;38044;45.148;39.604;2023-04-29T07:14:07;100618.25;;;16.84;65.17
52032;BME280;38044;45.148;39.604;2023-04-29T07:16:33;100584.75;;;16.80;64.96
52032;BME280;38044;45.148;39.604;2023-04-29T07:18:59;100608.63;;;17.07;64.64
52032;BME280;38044;45.148;39.604;2023-04-29T07:21:25;100605.97;;;16.99;64.15
52032;BME280;38044;45.148;39.604;2023-04-29T07:23:52;100599.44;;;17.00;64.37
52032;BME280;38044;45.148;39.604;2023-04-29T07:26:19;100587.50;;;16.92;65.13
52032;BME280;38044;45.148;39.604;2023-04-29T07:28:47;100606.00;;;17.11;65.62
52032;BME280;38044;45.148;39.604;2023-04-29T07:31:13;100590.22;;;17.25;65.30
52032;BME280;38044;45.148;39.604;2023-04-29T07:33:39;100590.69;;;17.27;65.67
52032;BME280;38044;45.148;39.604;2023-04-29T07:36:05;100590.47;;;17.20;65.63
52032;BME280;38044;45.148;39.604;2023-04-29T07:38:33;100517.56;;;16.68;65.96
52032;BME280;38044;45.148;39.604;2023-04-29T07:40:59;100598.09;;;17.06;66.47
52032;BME280;38044;45.148;39.604;2023-04-29T07:43:25;100586.97;;;16.99;65.87
52032;BME280;38044;45.148;39.604;2023-04-29T07:45:51;100438.88;;;15.93;65.91
52032;BME280;38044;45.148;39.604;2023-04-29T07:48:17;100579.16;;;16.76;66.93
52032;BME280;38044;45.148;39.604;2023-04-29T07:50:43;100602.28;;;16.82;67.93
52032;BME280;38044;45.148;39.604;2023-04-29T07:53:09;100593.84;;;16.75;67.58
52032;BME280;38044;45.148;39.604;2023-04-29T07:55:36;100445.22;;;15.67;68.52
52032;BME280;38044;45.148;39.604;2023-04-29T07:58:02;100604.91;;;16.70;68.13
52032;BME280;38044;45.148;39.604;2023-04-29T08:00:28;100594.56;;;16.63;68.66
52032;BME280;38044;45.148;39.604;2023-04-29T08:02:55;100569.28;;;16.51;68.77
52032;BME280;38044;45.148;39.604;2023-04-29T08:05:22;100447.66;;;15.60;68.36
52032;BME280;38044;45.148;39.604;2023-04-29T08:07:49;100605.09;;;16.65;68.65
52032;BME280;38044;45.148;39.604;2023-04-29T08:10:16;100611.19;;;16.62;69.47
52032;BME280;38044;45.148;39.604;2023-04-29T08:12:46;100584.81;;;16.41;69.40
52032;BME280;38044;45.148;39.604;2023-04-29T08:15:12;100586.16;;;16.35;69.18
52032;BME280;38044;45.148;39.604;2023-04-29T08:17:38;100561.47;;;16.28;69.49
52032;BME280;38044;45.148;39.604;2023-04-29T08:20:04;100593.69;;;16.51;70.52
52032;BME280;38044;45.148;39.604;2023-04-29T08:22:32;100575.19;;;16.53;70.81
52032;BME280;38044;45.148;39.604;2023-04-29T08:24:58;100568.16;;;16.52;71.56
52032;BME280;38044;45.148;39.604;2023-04-29T08:27:24;100569.09;;;16.56;72.17
52032;BME280;38044;45.148;39.604;2023-04-29T08:29:50;100573.84;;;16.59;72.36
52032;BME280;38044;45.148;39.604;2023-04-29T08:32:16;100497.78;;;16.05;72.66
52032;BME280;38044;45.148;39.604;2023-04-29T08:34:42;100566.84;;;16.37;72.67
52032;BME280;38044;45.148;39.604;2023-04-29T08:37:09;100416.03;;;15.43;73.72
52032;BME280;38044;45.148;39.604;2023-04-29T08:39:36;100526.47;;;16.14;73.99
52032;BME280;38044;45.148;39.604;2023-04-29T08:42:08;100531.03;;;16.23;74.42
52032;BME280;38044;45.148;39.604;2023-04-29T08:44:34;100561.66;;;16.23;75.17
52032;BME280;38044;45.148;39.604;2023-04-29T08:47:01;100549.69;;;15.94;75.16
52032;BME280;38044;45.148;39.604;2023-04-29T08:49:28;100563.56;;;15.93;75.93
52032;BME280;38044;45.148;39.604;2023-04-29T08:51:54;100552.97;;;15.62;75.82
52032;BME280;38044;45.148;39.604;2023-04-29T08:54:20;100481.97;;;15.09;76.61
52032;BME280;38044;45.148;39.604;2023-04-29T08:56:46;100557.88;;;15.30;76.70
52032;BME280;38044;45.148;39.604;2023-04-29T08:59:16;100469.47;;;14.61;78.25
52032;BME280;38044;45.148;39.604;2023-04-29T09:01:43;100564.75;;;15.10;77.89
52032;BME280;38044;45.148;39.604;2023-04-29T09:04:19;100549.66;;;14.83;79.12
52032;BME280;38044;45.148;39.604;2023-04-29T09:06:46;100544.09;;;14.62;79.83
52032;BME280;38044;45.148;39.604;2023-04-29T09:09:13;100553.47;;;14.64;79.68
52032;BME280;38044;45.148;39.604;2023-04-29T09:11:40;100546.59;;;14.50;79.88
52032;BME280;38044;45.148;39.604;2023-04-29T09:14:06;100470.47;;;13.82;81.01
52032;BME280;38044;45.148;39.604;2023-04-29T09:16:34;100561.84;;;14.28;81.82
52032;BME280;38044;45.148;39.604;2023-04-29T09:19:02;100548.28;;;14.02;82.20
52032;BME280;38044;45.148;39.604;2023-04-29T09:21:29;100562.41;;;13.99;83.00
52032;BME280;38044;45.148;39.604;2023-04-29T09:24:02;100590.47;;;14.20;83.41
52032;BME280;38044;45.148;39.604;2023-04-29T09:26:42;100589.66;;;14.11;83.93
52032;BME280;38044;45.148;39.604;2023-04-29T09:29:12;100557.09;;;13.77;84.40
52032;BME280;38044;45.148;39.604;2023-04-29T09:31:40;100595.63;;;13.91;84.11
52032;BME280;38044;45.148;39.604;2023-04-29T09:34:07;100568.78;;;13.63;84.62
52032;BME280;38044;45.148;39.604;2023-04-29T09:36:49;100558.00;;;13.63;85.28
52032;BME280;38044;45.148;39.604;2023-04-29T09:39:16;100579.59;;;13.63;84.73
52032;BME280;38044;45.148;39.604;2023-04-29T09:44:22;100623.09;;;13.62;85.28
52032;BME280;38044;45.148;39.604;2023-04-29T09:46:58;100625.59;;;13.81;85.15
52032;BME280;38044;45.148;39.604;2023-04-29T09:49:31;100628.22;;;13.63;85.53
52032;BME280;38044;45.148;39.604;2023-04-29T09:51:59;100625.09;;;13.79;86.26
52032;BME280;38044;45.148;39.604;2023-04-29T09:54:27;100640.75;;;13.90;85.53
52032;BME280;38044;45.148;39.604;2023-04-29T09:56:54;100633.44;;;13.91;85.03
52032;BME280;38044;45.148;39.604;2023-04-29T09:59:21;100610.28;;;13.67;84.84
52032;BME280;38044;45.148;39.604;2023-04-29T10:01:49;100598.00;;;13.61;84.65
52032;BME280;38044;45.148;39.604;2023-04-29T10:04:18;100643.97;;;13.70;84.91
52032;BME280;38044;45.148;39.604;2023-04-29T10:06:45;100503.03;;;12.83;85.47
52032;BME280;38044;45.148;39.604;2023-04-29T10:09:14;100597.75;;;13.40;85.44
52032;BME280;38044;45.148;39.604;2023-04-29T10:11:44;100633.00;;;13.66;85.73
52032;BME280;38044;45.148;39.604;2023-04-29T10:14:13;100584.28;;;13.49;85.30
52032;BME280;38044;45.148;39.604;2023-04-29T10:19:11;100612.63;;;13.60;85.68
52032;BME280;38044;45.148;39.604;2023-04-29T10:21:40;100489.25;;;12.84;85.54
52032;BME280;38044;45.148;39.604;2023-04-29T10:24:06;100627.03;;;13.78;85.42
52032;BME280;38044;45.148;39.604;2023-04-29T10:26:36;100629.88;;;13.82;85.65
52032;BME280;38044;45.148;39.604;2023-04-29T10:29:04;100576.81;;;13.46;85.19
52032;BME280;38044;45.148;39.604;2023-04-29T10:31:33;100481.28;;;12.79;84.96
52032;BME280;38044;45.148;39.604;2023-04-29T10:33:59;100646.25;;;13.77;84.89
52032;BME280;38044;45.148;39.604;2023-04-29T10:36:27;100660.44;;;13.82;84.93
52032;BME280;38044;45.148;39.604;2023-04-29T10:39:00;100639.06;;;13.72;85.15
52032;BME280;38044;45.148;39.604;2023-04-29T10:41:43;100649.50;;;13.96;85.15
52032;BME280;38044;45.148;39.604;2023-04-29T10:44:12;100643.78;;;13.89;84.75
52032;BME280;38044;45.148;39.604;2023-04-29T10:46:37;100542.59;;;13.33;84.55
52032;BME280;38044;45.148;39.604;2023-04-29T10:49:04;100608.28;;;13.82;85.01
52032;BME280;38044;45.148;39.604;2023-04-29T10:51:39;100503.50;;;13.30;84.70
52032;BME280;38044;45.148;39.604;2023-04-29T10:54:14;100520.63;;;13.57;85.14
52032;BME280;38044;45.148;39.604;2023-04-29T10:56:43;100656.53;;;14.37;84.36
52032;BME280;38044;45.148;39.604;2023-04-29T10:59:54;100644.09;;;14.36;83.88
52032;BME280;38044;45.148;39.604;2023-04-29T11:01:55;100627.41;;;14.34;83.58
52032;BME280;38044;45.148;39.604;2023-04-29T11:04:21;100617.53;;;14.29;84.03
52032;BME280;38044;45.148;39.604;2023-04-29T11:06:52;100632.66;;;14.39;84.06
52032;BME280;38044;45.148;39.604;2023-04-29T11:09:29;100597.16;;;14.23;84.23
52032;BME280;38044;45.148;39.604;2023-04-29T11:12:03;100620.25;;;14.38;83.67
52032;BME280;38044;45.148;39.604;2023-04-29T11:14:33;100625.81;;;14.41;83.59
52032;BME280;38044;45.148;39.604;2023-04-29T11:17:14;100619.63;;;14.41;84.11
52032;BME280;38044;45.148;39.604;2023-04-29T11:19:45;100530.78;;;13.91;84.13
52032;BME280;38044;45.148;39.604;2023-04-29T11:27:44;100494.06;;;13.50;84.24
52032;BME280;38044;45.148;39.604;2023-04-29T11:30:13;100592.50;;;14.06;84.31
52032;BME280;38044;45.148;39.604;2023-04-29T11:32:40;100487.50;;;13.34;84.74
52032;BME280;38044;45.148;39.604;2023-04-29T11:35:14;100574.13;;;13.86;85.43
52032;BME280;38044;45.148;39.604;2023-04-29T11:37:42;100530.28;;;13.49;85.75
52032;BME280;38044;45.148;39.604;2023-04-29T11:40:09;100506.19;;;13.30;87.04
52032;BME280;38044;45.148;39.604;2023-04-29T11:42:40;100504.50;;;13.34;87.18
52032;BME280;38044;45.148;39.604;2023-04-29T11:45:07;100493.66;;;13.25;87.25
52032;BME280;38044;45.148;39.604;2023-04-29T11:47:33;100292.59;;;11.89;88.10
52032;BME280;38044;45.148;39.604;2023-04-29T11:50:05;100512.75;;;13.38;88.33
52032;BME280;38044;45.148;39.604;2023-04-29T11:52:33;100503.81;;;13.28;88.06
52032;BME280;38044;45.148;39.604;2023-04-29T11:54:59;100528.22;;;13.23;88.67
52032;BME280;38044;45.148;39.604;2023-04-29T11:57:25;100508.03;;;13.21;89.25
52032;BME280;38044;45.148;39.604;2023-04-29T11:59:51;100434.06;;;12.91;89.44
52032;BME280;38044;45.148;39.604;2023-04-29T12:02:21;100390.75;;;12.65;89.14
52032;BME280;38044;45.148;39.604;2023-04-29T12:04:48;100473.41;;;13.14;88.68
52032;BME280;38044;45.148;39.604;2023-04-29T12:07:17;100449.72;;;13.11;89.50
52032;BME280;38044;45.148;39.604;2023-04-29T12:09:43;100530.56;;;13.79;89.12
52032;BME280;38044;45.148;39.604;2023-04-29T12:12:10;100557.47;;;14.01;87.70
52032;BME280;38044;45.148;39.604;2023-04-29T12:14:36;100572.63;;;14.11;86.33
52032;BME280;38044;45.148;39.604;2023-04-29T12:17:04;100539.81;;;13.86;85.74
52032;BME280;38044;45.148;39.604;2023-04-29T12:19:30;100597.72;;;14.03;85.91
52032;BME280;38044;45.148;39.604;2023-04-29T12:21:59;100512.13;;;13.41;86.10
52032;BME280;38044;45.148;39.604;2023-04-29T12:24:27;100545.03;;;13.43;86.04
52032;BME280;38044;45.148;39.604;2023-04-29T12:26:54;100580.72;;;13.62;85.77
52032;BME280;38044;45.148;39.604;2023-04-29T12:29:21;100599.00;;;13.65;85.46
52032;BME280;38044;45.148;39.604;2023-04-29T12:31:49;100612.56;;;13.74;85.92
52032;BME280;38044;45.148;39.604;2023-04-29T12:34:15;100607.16;;;13.74;86.20
52032;BME280;38044;45.148;39.604;2023-04-29T12:36:42;100603.19;;;13.80;86.84
52032;BME280;38044;45.148;39.604;2023-04-29T12:39:09;100594.94;;;13.77;86.79
52032;BME280;38044;45.148;39.604;2023-04-29T12:41:39;100611.75;;;13.73;85.97
52032;BME280;38044;45.148;39.604;2023-04-29T12:44:05;100606.78;;;13.67;85.75
52032;BME280;38044;45.148;39.604;2023-04-29T12:46:39;100589.13;;;13.61;85.41
52032;BME280;38044;45.148;39.604;2023-04-29T12:49:05;100618.38;;;13.67;85.31
52032;BME280;38044;45.148;39.604;2023-04-29T12:51:32;100577.06;;;13.36;85.84
52032;BME280;38044;45.148;39.604;2023-04-29T12:54:00;100502.06;;;12.79;86.94
52032;BME280;38044;45.148;39.604;2023-04-29T12:56:26;100503.09;;;12.69;86.97
52032;BME280;38044;45.148;39.604;2023-04-29T12:58:52;100619.16;;;13.37;87.38